Time;durP1;ratioP1;P1;durP2;ratioP2;P2;SDS_P1;SDS_P2;PMS_P1;PMS_P2;Temp;Humidity;BMP_temperature;BMP_pressure;BME280_temperature;BME280_humidity;BME280_pressure;Samples;Min_cycle;Max_cycle;Signal;HPM_P1;HPM_P2
2022/10/21 00:00:39;;;;;;;;;3.33;3.00;;;;;16.69;81.24;100062.66;5017144;28;45416;-59
2022/10/21 00:03:05;;;;;;;;;3.00;3.00;;;;;16.69;81.48;100062.66;5017185;28;45534;-57
2022/10/21 00:05:31;;;;;;;;;2.00;2.00;;;;;16.65;81.64;100063.88;5014054;28;45437;-57
2022/10/21 00:07:57;;;;;;;;;5.00;3.00;;;;;16.62;81.59;100069.53;5015361;28;45478;-58
2022/10/21 00:10:22;;;;;;;;;1.33;1.00;;;;;16.68;81.71;100071.72;5015909;28;45434;-58
2022/10/21 00:12:48;;;;;;;;;1.67;1.67;;;;;16.67;81.75;100073.53;5014239;28;45509;-57
2022/10/21 00:15:13;;;;;;;;;1.67;1.67;;;;;16.69;81.58;100059.97;5016711;28;45326;-56
2022/10/21 00:17:42;;;;;;;;;3.67;1.67;;;;;16.68;81.37;100060.97;5016012;28;45469;-57
2022/10/21 00:20:10;;;;;;;;;4.67;2.33;;;;;16.66;81.87;100049.47;5016466;28;45369;-57
2022/10/21 00:22:35;;;;;;;;;2.00;2.00;;;;;16.69;81.86;100059.97;5006996;28;45772;-57
2022/10/21 00:25:00;;;;;;;;;2.00;2.00;;;;;16.68;81.15;100051.06;5000214;28;45487;-57
2022/10/21 00:27:26;;;;;;;;;2.00;2.00;;;;;16.70;81.66;100050.94;5016677;28;45435;-57
2022/10/21 00:29:51;;;;;;;;;5.00;3.00;;;;;16.71;81.45;100047.25;5015463;28;45919;-58
2022/10/21 00:32:17;;;;;;;;;4.00;4.00;;;;;16.70;81.46;100049.09;5016213;28;45481;-57
2022/10/21 00:34:42;;;;;;;;;3.00;3.00;;;;;16.72;81.75;100041.75;5016648;28;45510;-58
2022/10/21 00:37:12;;;;;;;;;3.00;3.00;;;;;16.71;81.63;100049.94;5015622;28;45743;-57
2022/10/21 00:39:38;;;;;;;;;2.00;2.00;;;;;16.70;81.68;100042.88;5006776;28;45622;-55
2022/10/21 00:42:13;;;;;;;;;3.00;2.67;;;;;16.67;81.71;100032.41;5014795;28;45466;-58
2022/10/21 00:44:40;;;;;;;;;4.00;2.00;;;;;16.69;81.74;100041.19;5015962;28;46112;-56
2022/10/21 00:47:20;;;;;;;;;4.00;3.00;;;;;16.68;81.98;100044.88;5014658;28;45581;-57
2022/10/21 00:49:57;;;;;;;;;3.00;3.00;;;;;16.58;81.99;100028.69;5014573;28;45227;-57
2022/10/21 00:52:23;;;;;;;;;3.33;3.33;;;;;16.65;82.30;100035.19;4996495;28;45349;-59
2022/10/21 00:54:54;;;;;;;;;0.00;0.00;;;;;16.64;82.05;100038.00;5004856;28;45420;-58
2022/10/21 00:57:22;;;;;;;;;2.67;2.33;;;;;16.65;82.11;100029.81;5018457;28;45351;-59
2022/10/21 00:59:52;;;;;;;;;4.00;3.00;;;;;16.55;82.11;100009.34;5016448;28;45411;-60
2022/10/21 01:02:18;;;;;;;;;2.00;1.00;;;;;16.55;82.41;100002.13;5014853;28;45562;-58
2022/10/21 01:04:45;;;;;;;;;2.67;2.33;;;;;16.59;82.11;100002.69;5014676;28;47784;-56
2022/10/21 01:07:12;;;;;;;;;3.33;2.33;;;;;16.61;82.29;99995.34;5030849;28;45464;-57
2022/10/21 01:09:38;;;;;;;;;3.00;3.00;;;;;16.60;82.49;99983.75;5014571;28;45371;-57
2022/10/21 01:12:13;;;;;;;;;3.00;2.67;;;;;16.56;82.31;99976.13;5017100;28;45601;-56
2022/10/21 01:14:44;;;;;;;;;1.67;1.67;;;;;16.59;82.58;99976.69;5026553;28;45415;-57
2022/10/21 01:17:20;;;;;;;;;2.00;2.00;;;;;16.59;82.52;99971.31;5015954;28;45798;-56
2022/10/21 01:19:59;;;;;;;;;5.00;2.00;;;;;16.66;82.39;99966.22;5014409;28;45662;-58
2022/10/21 01:22:46;;;;;;;;;2.00;2.00;;;;;16.72;82.02;99963.03;5016331;28;45340;-57
2022/10/21 01:26:02;;;;;;;;;3.00;3.00;;;;;16.70;82.08;99960.50;5015872;28;46262;-56
2022/10/21 01:28:39;;;;;;;;;2.67;2.67;;;;;16.73;82.19;99952.16;5014618;28;45549;-56
2022/10/21 01:31:11;;;;;;;;;3.00;3.00;;;;;16.78;81.90;99954.41;5014897;28;45591;-57
2022/10/21 01:33:40;;;;;;;;;2.00;2.00;;;;;16.80;81.90;99957.81;5014833;28;45616;-57
2022/10/21 01:36:23;;;;;;;;;3.67;2.00;;;;;16.84;82.17;99964.59;5015865;28;46146;-57
2022/10/21 01:39:15;;;;;;;;;4.00;2.00;;;;;16.86;81.99;99970.66;5010577;28;45429;-57
2022/10/21 01:41:59;;;;;;;;;3.33;3.33;;;;;16.88;81.72;99979.44;5006630;28;45419;-56
2022/10/21 01:44:50;;;;;;;;;3.67;3.00;;;;;16.89;81.81;99973.06;5015296;28;45493;-57
2022/10/21 01:47:24;;;;;;;;;2.00;2.00;;;;;16.88;81.75;99982.13;5007487;28;46114;-58
2022/10/21 01:49:54;;;;;;;;;4.00;3.00;;;;;16.89;82.22;99970.38;5010663;28;45452;-61
2022/10/21 01:52:20;;;;;;;;;4.00;1.67;;;;;16.92;81.98;99977.28;5015909;28;45173;-57
2022/10/21 01:54:57;;;;;;;;;2.00;2.00;;;;;16.93;81.71;99984.41;5015755;28;45447;-60
2022/10/21 01:57:29;;;;;;;;;2.00;2.00;;;;;16.97;81.86;99992.03;5012898;28;46185;-57
2022/10/21 01:59:56;;;;;;;;;3.00;1.67;;;;;17.00;82.11;100001.63;5014171;28;45331;-58
2022/10/21 02:02:27;;;;;;;;;3.67;3.00;;;;;16.98;82.42;100020.56;5015343;28;45597;-57
2022/10/21 02:04:56;;;;;;;;;3.00;2.00;;;;;16.96;82.96;100048.56;5002711;28;45187;-57
2022/10/21 02:07:22;;;;;;;;;4.33;4.00;;;;;16.91;83.71;100085.72;5016171;28;46199;-57
2022/10/21 02:09:47;;;;;;;;;3.00;2.33;;;;;16.85;87.78;100087.16;5014931;28;45512;-57
2022/10/21 02:12:15;;;;;;;;;2.67;2.67;;;;;16.76;86.88;100099.56;5014894;28;45409;-58
2022/10/21 02:14:51;;;;;;;;;4.00;2.67;;;;;16.68;88.21;100093.19;5013696;28;45301;-57
2022/10/21 02:17:20;;;;;;;;;2.33;2.33;;;;;16.63;88.97;100106.13;5013175;28;47476;-58
2022/10/21 02:19:46;;;;;;;;;4.00;2.33;;;;;16.58;89.97;100084.22;5014630;28;45289;-57
2022/10/21 02:22:16;;;;;;;;;4.00;3.00;;;;;16.54;90.17;100075.59;5002993;28;45438;-58
2022/10/21 02:24:46;;;;;;;;;5.00;3.67;;;;;16.50;91.30;100053.53;5022573;28;45482;-56
2022/10/21 02:27:12;;;;;;;;;4.33;3.33;;;;;16.46;92.27;100045.91;5016116;28;46170;-56
2022/10/21 02:29:41;;;;;;;;;4.00;2.67;;;;;16.41;91.46;100027.53;5018549;28;45464;-57
2022/10/21 02:32:15;;;;;;;;;6.00;4.67;;;;;16.44;93.04;100012.97;5018340;28;45471;-57
2022/10/21 02:35:07;;;;;;;;;3.00;3.00;;;;;16.43;93.72;100014.81;5018691;28;45699;-56
2022/10/21 02:37:52;;;;;;;;;3.33;3.33;;;;;16.32;100.00;99997.97;5012704;28;46495;-58
2022/10/21 02:40:39;;;;;;;;;5.00;4.00;;;;;16.35;100.00;99936.81;5015198;28;45482;-58
2022/10/21 02:43:10;;;;;;;;;4.67;4.67;;;;;16.33;100.00;99917.31;5012859;28;45395;-57
2022/10/21 02:45:38;;;;;;;;;5.67;4.33;;;;;16.38;100.00;99925.78;5020507;28;45438;-58
2022/10/21 02:48:03;;;;;;;;;2.67;2.67;;;;;16.37;100.00;99908.00;5019599;28;46572;-57
2022/10/21 02:50:29;;;;;;;;;5.00;3.33;;;;;16.37;100.00;99909.84;5018783;28;45406;-61
2022/10/21 02:52:54;;;;;;;;;7.67;4.00;;;;;16.36;100.00;99903.63;5022768;28;45355;-57
2022/10/21 02:55:19;;;;;;;;;4.00;2.00;;;;;16.40;100.00;99912.25;5017781;28;45637;-57
2022/10/21 02:57:45;;;;;;;;;2.67;2.67;;;;;16.38;100.00;99912.38;5018103;28;45712;-58
2022/10/21 03:00:11;;;;;;;;;3.00;2.33;;;;;16.37;100.00;99916.06;5018103;28;45351;-58
2022/10/21 03:02:36;;;;;;;;;2.00;1.67;;;;;16.33;100.00;99916.47;5033742;28;45300;-58
2022/10/21 03:05:02;;;;;;;;;3.00;3.00;;;;;16.25;100.00;99919.84;5017081;28;46676;-57
2022/10/21 03:07:27;;;;;;;;;4.00;2.00;;;;;16.22;100.00;99912.09;5018129;28;45250;-58
2022/10/21 03:09:53;;;;;;;;;3.00;2.33;;;;;16.19;100.00;99905.16;5017765;28;45205;-56
2022/10/21 03:12:18;;;;;;;;;4.00;3.00;;;;;16.24;100.00;99910.09;5009331;28;45842;-57
2022/10/21 03:14:43;;;;;;;;;2.00;2.00;;;;;16.22;100.00;99936.22;5004441;28;45522;-59
2022/10/21 03:17:09;;;;;;;;;4.00;2.67;;;;;16.23;100.00;99944.13;5018059;28;46141;-56
2022/10/21 03:19:34;;;;;;;;;4.00;1.00;;;;;16.16;100.00;99960.94;5018041;28;45554;-57
2022/10/21 03:22:00;;;;;;;;;3.33;2.67;;;;;16.17;100.00;99976.03;5018427;28;45443;-57
2022/10/21 03:24:25;;;;;;;;;3.67;2.67;;;;;16.10;100.00;99964.16;5015659;28;45482;-57
2022/10/21 03:26:50;;;;;;;;;3.33;3.00;;;;;16.17;100.00;99973.38;5016787;28;46895;-58
2022/10/21 03:29:16;;;;;;;;;2.00;2.00;;;;;16.29;100.00;100001.78;5009893;28;45431;-57
2022/10/21 03:31:41;;;;;;;;;3.00;3.00;;;;;16.24;100.00;99971.81;5016140;28;45493;-56
2022/10/21 03:34:06;;;;;;;;;4.00;2.00;;;;;16.34;100.00;99987.94;5017599;28;45319;-57
2022/10/21 03:36:32;;;;;;;;;2.33;2.33;;;;;16.35;100.00;99976.22;5018751;28;45603;-58
2022/10/21 03:39:00;;;;;;;;;4.00;3.00;;;;;16.41;100.00;99973.00;5016783;28;45549;-59
2022/10/21 03:41:26;;;;;;;;;2.00;2.00;;;;;16.38;100.00;99958.00;5016074;28;45548;-59
2022/10/21 03:43:51;;;;;;;;;2.00;2.00;;;;;16.44;99.87;99978.94;5016983;28;45426;-58
2022/10/21 03:46:16;;;;;;;;;3.00;3.00;;;;;16.44;98.73;99978.09;5009004;28;46084;-58
2022/10/21 03:48:42;;;;;;;;;6.00;4.33;;;;;16.47;99.01;99967.06;4999260;28;45337;-59
2022/10/21 03:51:07;;;;;;;;;3.00;3.00;;;;;16.41;98.85;99957.75;5009357;28;46089;-57
2022/10/21 03:53:32;;;;;;;;;4.67;2.00;;;;;16.46;97.87;99960.84;5016616;28;45565;-58
2022/10/21 03:55:58;;;;;;;;;2.00;1.00;;;;;16.46;96.68;99992.22;5011362;28;46726;-58
2022/10/21 03:58:27;;;;;;;;;3.00;2.67;;;;;16.42;96.80;99988.97;5017591;28;45269;-57
2022/10/21 04:00:53;;;;;;;;;3.00;3.00;;;;;16.47;96.84;99986.69;5016712;28;45343;-58
2022/10/21 04:03:18;;;;;;;;;2.00;2.00;;;;;16.44;96.04;99988.81;5023642;28;45478;-57
2022/10/21 04:05:44;;;;;;;;;3.00;2.00;;;;;16.42;95.69;99983.59;5023889;28;46459;-57
2022/10/21 04:08:09;;;;;;;;;2.00;2.00;;;;;16.40;96.01;100004.31;5017482;28;45335;-58
2022/10/21 04:10:35;;;;;;;;;3.67;3.00;;;;;16.38;96.26;100000.94;5016821;28;45532;-56
2022/10/21 04:13:00;;;;;;;;;2.67;2.67;;;;;16.36;95.90;100002.91;5032966;28;45363;-57
2022/10/21 04:15:26;;;;;;;;;2.00;2.00;;;;;16.34;96.12;99987.94;5015519;28;45372;-57
2022/10/21 04:17:51;;;;;;;;;3.50;3.50;;;;;16.33;96.18;99986.25;5018333;28;45268;-59
2022/10/21 04:20:16;;;;;;;;;3.33;2.00;;;;;16.36;96.41;99992.19;5016184;28;45388;-58
2022/10/21 04:22:42;;;;;;;;;3.00;3.00;;;;;16.32;95.60;99984.56;5011296;28;45622;-57
2022/10/21 04:25:07;;;;;;;;;1.67;1.67;;;;;16.31;96.49;99978.34;5028336;28;48165;-58
2022/10/21 04:27:33;;;;;;;;;2.67;2.67;;;;;16.27;96.70;99986.78;5015511;28;45315;-58
2022/10/21 04:29:58;;;;;;;;;3.33;3.33;;;;;16.27;96.55;99987.63;5016057;28;45199;-58
2022/10/21 04:32:24;;;;;;;;;2.00;2.00;;;;;16.26;96.43;99985.94;5016165;28;45549;-56
2022/10/21 04:34:49;;;;;;;;;4.33;3.00;;;;;16.30;96.72;99997.25;5014480;28;45411;-56
2022/10/21 04:37:14;;;;;;;;;4.00;3.00;;;;;16.30;97.15;99995.44;5014949;28;48060;-56
2022/10/21 04:39:40;;;;;;;;;5.00;3.67;;;;;16.34;96.83;100002.22;5015848;28;45526;-58
2022/10/21 04:42:05;;;;;;;;;3.00;3.00;;;;;16.35;96.63;99990.50;5015717;28;45626;-58
2022/10/21 04:44:31;;;;;;;;;8.33;7.67;;;;;16.37;96.72;99993.03;5024148;28;45435;-58
2022/10/21 04:46:56;;;;;;;;;6.00;3.00;;;;;16.32;96.94;99988.09;5014006;28;45507;-58
2022/10/21 04:49:22;;;;;;;;;4.33;4.33;;;;;16.40;96.97;99998.13;5018155;28;45514;-57
2022/10/21 04:51:47;;;;;;;;;6.00;6.00;;;;;16.44;97.06;100003.09;5016491;28;45660;-59
2022/10/21 04:54:13;;;;;;;;;5.00;4.00;;;;;16.47;96.38;99993.91;5017343;28;45593;-58
2022/10/21 04:56:41;;;;;;;;;4.33;3.67;;;;;16.48;96.77;99995.59;5017584;28;45508;-57
2022/10/21 04:59:07;;;;;;;;;3.33;3.33;;;;;16.50;96.74;99999.84;5015935;28;45814;-58
2022/10/21 05:01:32;;;;;;;;;5.33;4.67;;;;;16.51;97.18;99998.84;5016478;28;45566;-57
2022/10/21 05:03:58;;;;;;;;;8.00;5.67;;;;;16.51;97.49;99996.16;5016852;28;45401;-59
2022/10/21 05:06:23;;;;;;;;;7.67;4.00;;;;;16.50;97.73;99989.09;5020877;28;45620;-59
2022/10/21 05:08:49;;;;;;;;;5.00;3.33;;;;;16.58;98.03;100001.00;5000883;28;45351;-59
2022/10/21 05:11:14;;;;;;;;;5.00;5.00;;;;;16.56;98.52;100002.97;5036291;28;45689;-57
2022/10/21 05:13:39;;;;;;;;;4.00;4.00;;;;;16.53;97.75;100002.25;5036938;28;46219;-57
2022/10/21 05:16:05;;;;;;;;;6.00;5.00;;;;;16.56;97.73;100005.66;5023258;28;45384;-58
2022/10/21 05:18:31;;;;;;;;;5.33;5.33;;;;;16.55;98.30;99996.75;5017121;28;45256;-59
2022/10/21 05:20:57;;;;;;;;;8.00;7.00;;;;;16.57;98.91;99988.56;5032309;28;45544;-57
2022/10/21 05:23:24;;;;;;;;;7.00;5.00;;;;;16.56;99.15;100008.34;5016197;28;46185;-60
2022/10/21 05:25:50;;;;;;;;;9.00;5.00;;;;;16.54;99.38;100011.19;5022646;28;45324;-56
2022/10/21 05:28:16;;;;;;;;;1.33;1.33;;;;;16.60;99.01;100032.09;5036856;28;45359;-59
2022/10/21 05:30:45;;;;;;;;;11.00;8.00;;;;;16.62;98.91;100023.88;5037007;28;45203;-57
2022/10/21 05:33:11;;;;;;;;;8.00;8.00;;;;;16.61;97.97;100016.81;5022618;28;45310;-57
2022/10/21 05:35:36;;;;;;;;;7.00;5.33;;;;;16.63;97.25;100009.47;5017099;28;45530;-59
2022/10/21 05:38:03;;;;;;;;;8.33;7.00;;;;;16.65;97.57;100018.22;5016418;28;45446;-57
2022/10/21 05:40:29;;;;;;;;;5.00;5.00;;;;;16.61;96.88;100011.44;5016542;28;45558;-56
2022/10/21 05:42:54;;;;;;;;;5.67;4.00;;;;;16.62;96.51;100016.69;5016319;28;46053;-55
2022/10/21 05:45:20;;;;;;;;;6.00;6.00;;;;;16.64;96.64;100020.06;5016437;28;45452;-59
2022/10/21 05:47:45;;;;;;;;;6.00;4.33;;;;;16.62;96.47;100007.78;5016592;28;45580;-57
2022/10/21 05:50:12;;;;;;;;;6.00;6.00;;;;;16.65;95.63;99997.59;5016668;28;45526;-59
2022/10/21 05:52:38;;;;;;;;;6.67;6.00;;;;;16.68;95.96;100002.75;5000174;28;46380;-59
2022/10/21 05:55:04;;;;;;;;;4.00;4.00;;;;;16.72;95.92;100006.00;4978674;28;45527;-58
2022/10/21 05:57:34;;;;;;;;;4.00;4.00;;;;;16.73;95.31;100010.38;5000506;28;45872;-59
2022/10/21 06:00:00;;;;;;;;;6.00;3.00;;;;;16.67;94.87;100016.28;5015413;28;45521;-58
2022/10/21 06:02:26;;;;;;;;;6.67;5.00;;;;;16.72;95.72;100030.16;5014868;28;46045;-60
2022/10/21 06:04:51;;;;;;;;;6.33;5.00;;;;;16.75;96.23;100035.25;5015974;28;45387;-57
2022/10/21 06:07:16;;;;;;;;;5.33;4.33;;;;;16.72;95.62;100030.16;5015888;28;45457;-59
2022/10/21 06:09:42;;;;;;;;;6.67;6.00;;;;;16.77;94.86;100057.44;5016824;28;45495;-58
2022/10/21 06:12:07;;;;;;;;;8.67;5.67;;;;;16.78;95.60;100072.56;5015995;28;46452;-56
2022/10/21 06:14:36;;;;;;;;;6.00;5.00;;;;;16.76;94.88;100075.38;5016340;28;45241;-59
2022/10/21 06:17:07;;;;;;;;;6.33;4.33;;;;;16.79;94.71;100096.59;5016028;28;45486;-56
2022/10/21 06:19:32;;;;;;;;;2.00;2.00;;;;;16.80;94.70;100098.31;5021125;28;45467;-53
2022/10/21 06:21:58;;;;;;;;;4.00;2.33;;;;;16.81;94.39;100104.53;5017462;28;47038;-58
2022/10/21 06:24:24;;;;;;;;;4.00;4.00;;;;;16.78;94.66;100085.97;5014521;28;45339;-57
2022/10/21 06:26:50;;;;;;;;;7.00;5.00;;;;;16.86;95.33;100090.69;5014845;28;45316;-56
2022/10/21 06:29:16;;;;;;;;;4.67;4.33;;;;;16.84;95.05;100098.03;5015127;28;45700;-60
2022/10/21 06:31:42;;;;;;;;;6.00;5.00;;;;;16.87;94.50;100112.03;5013594;28;45430;-57
2022/10/21 06:34:08;;;;;;;;;6.00;5.00;;;;;16.87;94.51;100101.28;5015435;28;45414;-58
2022/10/21 06:36:33;;;;;;;;;6.00;6.00;;;;;16.87;95.25;100117.41;5016111;28;45316;-58
2022/10/21 06:38:59;;;;;;;;;9.00;7.33;;;;;16.86;96.32;100131.81;5016208;28;45557;-60
2022/10/21 06:41:25;;;;;;;;;4.33;4.00;;;;;16.83;94.99;100132.09;5014486;28;46357;-59
2022/10/21 06:43:50;;;;;;;;;4.67;4.33;;;;;16.64;96.98;100108.66;5013827;28;45460;-58
2022/10/21 06:46:16;;;;;;;;;6.67;5.00;;;;;16.76;97.82;100126.41;5016125;28;45312;-59
2022/10/21 06:48:42;;;;;;;;;9.00;6.00;;;;;16.77;96.96;100125.41;5018938;28;45232;-60
2022/10/21 06:51:18;;;;;;;;;7.00;6.00;;;;;16.71;99.65;100103.66;5004929;28;45418;-58
2022/10/21 06:53:44;;;;;;;;;5.00;5.00;;;;;16.74;100.00;100122.16;4995894;28;45288;-60
2022/10/21 06:56:17;;;;;;;;;8.00;6.00;;;;;16.65;100.00;100145.28;4995889;28;45222;-58
2022/10/21 06:58:46;;;;;;;;;7.67;7.33;;;;;16.59;100.00;100136.91;5013756;28;45392;-59
2022/10/21 07:01:15;;;;;;;;;9.33;6.00;;;;;16.62;100.00;100137.50;5001186;28;45408;-59
2022/10/21 07:03:41;;;;;;;;;4.67;4.67;;;;;16.55;100.00;100135.50;4995140;28;45355;-60
2022/10/21 07:06:06;;;;;;;;;7.00;6.67;;;;;16.57;100.00;100134.38;4995850;28;45434;-58
2022/10/21 07:08:33;;;;;;;;;9.00;6.67;;;;;16.57;100.00;100122.78;4999740;28;45626;-58
2022/10/21 07:11:01;;;;;;;;;5.00;5.00;;;;;16.57;100.00;100122.78;5035286;28;45267;-59
2022/10/21 07:13:27;;;;;;;;;9.00;9.00;;;;;16.56;100.00;100123.78;5034843;28;45511;-59
2022/10/21 07:16:05;;;;;;;;;4.00;4.00;;;;;16.54;100.00;100123.91;5018671;28;45477;-60
2022/10/21 07:18:31;;;;;;;;;3.00;3.00;;;;;16.51;100.00;100125.00;5019005;28;45560;-58
2022/10/21 07:21:05;;;;;;;;;7.00;7.00;;;;;16.50;100.00;100147.47;5018080;28;46133;-58
2022/10/21 07:23:30;;;;;;;;;14.67;11.00;;;;;16.45;100.00;100141.66;5018255;28;45383;-58
2022/10/21 07:25:56;;;;;;;;;7.00;7.00;;;;;16.48;100.00;100168.22;5001930;28;45325;-59
2022/10/21 07:28:22;;;;;;;;;6.00;6.00;;;;;16.40;100.00;100170.72;5015129;28;45527;-58
2022/10/21 07:30:48;;;;;;;;;6.33;2.00;;;;;16.48;100.00;100195.06;5033940;28;45442;-59
2022/10/21 07:33:13;;;;;;;;;7.67;6.00;;;;;16.52;100.00;100191.13;5018312;28;45233;-59
2022/10/21 07:35:38;;;;;;;;;6.00;5.00;;;;;16.52;100.00;100175.03;5018807;28;45253;-55
2022/10/21 07:38:04;;;;;;;;;8.67;6.67;;;;;16.50;100.00;100150.16;5017129;28;45391;-58
2022/10/21 07:40:30;;;;;;;;;7.33;4.67;;;;;16.49;100.00;100163.72;5018325;28;46081;-59
2022/10/21 07:42:56;;;;;;;;;6.33;5.33;;;;;16.52;100.00;100191.13;5001660;28;45398;-58
2022/10/21 07:45:22;;;;;;;;;5.00;3.67;;;;;16.51;98.73;100193.94;5014924;28;45438;-59
2022/10/21 07:47:48;;;;;;;;;4.67;4.67;;;;;16.52;98.83;100201.03;5001096;28;45442;-60
2022/10/21 07:50:15;;;;;;;;;6.00;4.00;;;;;16.51;97.72;100194.81;5038301;28;47677;-60
2022/10/21 07:52:44;;;;;;;;;6.00;5.00;;;;;16.55;97.09;100189.19;5038304;28;45526;-57
2022/10/21 07:55:15;;;;;;;;;4.67;4.00;;;;;16.49;96.88;100180.66;5038447;28;45388;-59
2022/10/21 07:57:42;;;;;;;;;3.67;3.67;;;;;16.56;97.39;100186.38;5038233;28;45478;-57
2022/10/21 08:00:08;;;;;;;;;3.00;3.00;;;;;16.62;97.27;100188.50;5000399;28;46373;-58
2022/10/21 08:02:34;;;;;;;;;4.00;4.00;;;;;16.66;97.05;100194.44;4999828;28;45412;-56
2022/10/21 08:05:04;;;;;;;;;4.00;3.00;;;;;16.66;95.28;100191.75;5003062;28;45400;-60
2022/10/21 08:07:31;;;;;;;;;3.00;3.00;;;;;16.74;95.31;100186.63;5018163;28;45849;-65
2022/10/21 08:09:57;;;;;;;;;2.67;2.67;;;;;16.78;94.72;100188.03;5016133;28;45773;-60
2022/10/21 08:12:23;;;;;;;;;2.00;2.00;;;;;16.84;95.82;100202.78;5016374;28;45338;-58
2022/10/21 08:14:49;;;;;;;;;4.33;3.00;;;;;16.93;95.41;100204.66;5016982;28;45322;-56
2022/10/21 08:17:15;;;;;;;;;4.67;4.00;;;;;17.01;95.24;100208.34;5016772;28;45495;-59
2022/10/21 08:19:40;;;;;;;;;11.00;4.67;;;;;17.06;94.78;100199.88;5017651;28;45858;-59
2022/10/21 08:22:05;;;;;;;;;4.00;4.00;;;;;17.14;93.95;100201.88;5017635;28;45380;-57
2022/10/21 08:24:31;;;;;;;;;3.00;3.00;;;;;17.18;93.36;100201.44;5018178;28;45287;-58
2022/10/21 08:26:57;;;;;;;;;4.33;2.67;;;;;17.25;93.82;100207.13;5018121;28;45329;-58
2022/10/21 08:29:22;;;;;;;;;3.00;3.00;;;;;17.29;92.57;100200.47;5016752;28;45915;-59
2022/10/21 08:31:48;;;;;;;;;2.00;2.00;;;;;17.37;91.37;100208.72;5013231;28;45335;-59
2022/10/21 08:34:13;;;;;;;;;4.67;4.00;;;;;17.45;92.01;100210.69;5001394;28;45395;-60
2022/10/21 08:36:40;;;;;;;;;5.33;3.67;;;;;17.54;91.03;100212.56;5019038;28;45786;-61
2022/10/21 08:39:06;;;;;;;;;6.67;6.00;;;;;17.54;91.29;100209.88;5018963;28;45460;-59
2022/10/21 08:41:41;;;;;;;;;8.67;4.00;;;;;17.60;91.13;100199.41;5018748;28;45835;-62
2022/10/21 08:44:24;;;;;;;;;3.00;3.00;;;;;17.54;90.66;100197.28;5017471;28;45323;-59
2022/10/21 08:47:04;;;;;;;;;7.00;7.00;;;;;17.54;91.46;100199.97;5017980;28;45932;-60
2022/10/21 08:49:54;;;;;;;;;5.00;5.00;;;;;17.58;92.06;100200.56;5027315;28;45484;-59
2022/10/21 08:52:26;;;;;;;;;4.00;3.00;;;;;17.66;91.53;100209.59;5019508;28;45514;-58
2022/10/21 08:54:59;;;;;;;;;5.67;5.67;;;;;17.69;91.09;100214.72;5016029;28;45398;-57
2022/10/21 08:57:27;;;;;;;;;6.67;5.00;;;;;17.73;91.29;100214.47;5017460;28;45301;-59
2022/10/21 08:59:53;;;;;;;;;9.67;6.33;;;;;17.77;91.06;100213.19;5017116;28;47260;-58
2022/10/21 09:03:03;;;;;;;;;3.67;3.00;;;;;17.74;90.13;100208.09;5017075;28;45380;-58
2022/10/21 09:05:37;;;;;;;;;2.67;2.67;;;;;17.67;90.26;100205.06;5016061;28;45359;-58
2022/10/21 09:08:24;;;;;;;;;3.67;3.67;;;;;17.82;90.63;100214.44;5036851;28;45214;-58
2022/10/21 09:10:58;;;;;;;;;5.33;3.00;;;;;17.89;90.00;100215.59;5036886;28;45314;-59
2022/10/21 09:13:29;;;;;;;;;6.00;4.00;;;;;17.88;88.11;100204.97;5035290;28;45371;-62
2022/10/21 09:16:18;;;;;;;;;7.00;4.00;;;;;17.89;89.12;100203.97;5036873;28;45374;-60
2022/10/21 09:19:25;;;;;;;;;4.67;4.67;;;;;17.98;88.91;100209.38;5034328;28;45573;-57
2022/10/21 09:21:59;;;;;;;;;3.33;3.33;;;;;18.07;88.21;100206.78;5035610;28;46634;-57
2022/10/21 09:24:39;;;;;;;;;6.00;4.00;;;;;18.08;88.44;100190.50;5038804;28;45370;-58
2022/10/21 09:27:08;;;;;;;;;4.33;4.33;;;;;18.21;88.03;100204.50;5041737;28;44715;-62
2022/10/21 09:29:43;;;;;;;;;4.67;4.67;;;;;18.20;88.28;100205.50;5053770;28;45629;-60
2022/10/21 09:32:18;;;;;;;;;4.33;4.33;;;;;18.19;88.15;100209.19;5036738;28;45532;-59
2022/10/21 09:34:55;;;;;;;;;6.00;4.00;;;;;18.19;87.39;100206.50;5031799;28;45389;-62
2022/10/21 09:37:42;;;;;;;;;5.33;4.00;;;;;18.31;87.74;100211.72;5016979;28;45336;-58
2022/10/21 09:40:15;;;;;;;;;4.67;4.67;;;;;18.39;86.96;100198.38;5016443;28;45286;-59
2022/10/21 09:42:40;;;;;;;;;5.00;5.00;;;;;18.47;87.32;100203.88;5014728;28;45434;-60
2022/10/21 09:45:23;;;;;;;;;7.00;5.00;;;;;18.52;86.92;100205.16;5016447;28;45417;-59
2022/10/21 09:48:21;;;;;;;;;10.00;6.67;;;;;18.62;86.49;100193.47;5015808;28;45381;-61
2022/10/21 09:51:15;;;;;;;;;5.67;5.67;;;;;18.69;86.16;100190.09;5015568;28;45358;-59
2022/10/21 09:53:50;;;;;;;;;8.33;7.33;;;;;18.72;86.60;100197.88;5014443;28;45521;-59
2022/10/21 09:56:35;;;;;;;;;11.67;7.67;;;;;18.72;86.27;100202.41;5016021;28;45755;-58
2022/10/21 09:59:10;;;;;;;;;8.00;8.00;;;;;18.77;86.32;100190.22;5016298;28;45422;-60
2022/10/21 10:01:37;;;;;;;;;7.00;7.00;;;;;18.85;85.82;100206.47;5015412;28;45406;-60
2022/10/21 10:04:19;;;;;;;;;8.67;7.00;;;;;18.90;84.71;100197.97;5014098;28;45415;-59
2022/10/21 10:06:45;;;;;;;;;7.67;6.00;;;;;18.92;83.21;100214.81;5022530;28;45413;-60
2022/10/21 10:09:26;;;;;;;;;6.67;4.00;;;;;18.97;83.02;100222.44;5016278;28;45408;-58
2022/10/21 10:11:55;;;;;;;;;8.00;5.67;;;;;19.00;83.55;100214.91;5000455;28;45459;-58
2022/10/21 10:14:28;;;;;;;;;6.50;5.00;;;;;18.99;83.36;100212.34;5031763;28;46924;-58
2022/10/21 10:16:53;;;;;;;;;7.00;5.00;;;;;19.00;83.87;100219.44;5031981;28;45339;-58
2022/10/21 10:19:28;;;;;;;;;6.00;5.00;;;;;19.08;82.37;100214.16;5016519;28;45210;-58
2022/10/21 10:22:15;;;;;;;;;3.67;3.67;;;;;19.14;82.16;100214.44;5016313;28;45707;-60
2022/10/21 10:24:42;;;;;;;;;4.00;4.00;;;;;19.21;81.64;100206.56;5015649;28;45262;-59
2022/10/21 10:27:15;;;;;;;;;7.67;7.00;;;;;19.18;81.49;100193.41;5016187;28;45566;-58
2022/10/21 10:29:47;;;;;;;;;6.67;6.67;;;;;19.32;80.38;100209.06;5016112;28;45242;-58
2022/10/21 10:32:15;;;;;;;;;7.00;5.00;;;;;19.26;81.10;100211.50;5015736;28;45243;-59
2022/10/21 10:35:02;;;;;;;;;5.67;5.67;;;;;19.31;81.18;100215.47;5015778;28;45430;-58
2022/10/21 10:37:33;;;;;;;;;5.00;3.75;;;;;19.41;79.50;100216.25;5016432;28;45431;-58
2022/10/21 10:40:01;;;;;;;;;5.67;5.67;;;;;19.46;80.02;100210.41;5015698;28;45319;-59
2022/10/21 10:42:32;;;;;;;;;8.00;7.33;;;;;19.57;79.63;100204.81;5015987;28;45681;-60
2022/10/21 10:45:02;;;;;;;;;10.00;4.67;;;;;19.72;76.52;100202.44;5015433;28;45407;-60
2022/10/21 10:47:34;;;;;;;;;7.67;6.00;;;;;19.81;76.59;100200.66;5015734;28;45418;-59
2022/10/21 10:49:59;;;;;;;;;4.00;3.00;;;;;19.94;75.39;100201.97;5034863;28;45825;-61
2022/10/21 10:52:25;;;;;;;;;9.00;7.00;;;;;20.10;75.35;100208.50;5019857;28;45843;-59
2022/10/21 10:55:26;;;;;;;;;5.00;5.00;;;;;20.19;75.09;100194.06;5019493;28;46151;-59
2022/10/21 10:57:54;;;;;;;;;5.25;5.25;;;;;20.24;74.37;100194.44;5017581;28;45486;-59
2022/10/21 11:00:22;;;;;;;;;4.00;2.75;;;;;20.29;73.71;100190.25;5019051;28;45453;-59
2022/10/21 11:02:56;;;;;;;;;5.75;4.00;;;;;20.45;73.00;100196.81;5019670;28;45375;-60
2022/10/21 11:05:35;;;;;;;;;7.25;7.00;;;;;20.54;73.05;100199.38;5019507;28;47192;-60
2022/10/21 11:08:34;;;;;;;;;4.00;4.00;;;;;20.54;71.37;100193.97;5019387;28;45402;-60
2022/10/21 11:11:06;;;;;;;;;6.50;5.75;;;;;20.54;72.31;100187.72;5021797;28;45687;-61
2022/10/21 11:13:36;;;;;;;;;6.25;5.75;;;;;20.57;70.58;100192.81;5019583;28;45480;-60
2022/10/21 11:16:17;;;;;;;;;5.00;5.00;;;;;20.59;72.12;100186.25;5019139;28;45769;-61
2022/10/21 11:18:51;;;;;;;;;6.25;4.75;;;;;20.70;71.29;100197.78;5017744;28;45353;-59
2022/10/21 11:21:44;;;;;;;;;4.00;4.00;;;;;20.84;69.43;100186.41;5018968;28;45382;-59
2022/10/21 11:24:44;;;;;;;;;4.00;4.00;;;;;21.03;68.87;100188.81;5018818;28;45469;-58
2022/10/21 11:27:38;;;;;;;;;3.50;3.25;;;;;21.18;67.63;100192.59;5016086;28;46238;-59
2022/10/21 11:30:22;;;;;;;;;5.00;4.00;;;;;21.28;67.23;100191.66;5017224;28;45506;-59
2022/10/21 11:33:19;;;;;;;;;3.50;3.00;;;;;21.35;67.04;100189.97;5034410;28;45296;-58
2022/10/21 11:35:51;;;;;;;;;4.25;4.25;;;;;21.41;66.07;100197.44;5017642;28;45385;-59
2022/10/21 11:38:45;;;;;;;;;3.00;3.00;;;;;21.44;64.52;100200.66;5018462;28;46274;-59
2022/10/21 11:41:22;;;;;;;;;3.00;3.00;;;;;21.30;64.21;100195.88;5018692;28;45478;-58